Time;durP1;ratioP1;P1;durP2;ratioP2;P2;SDS_P1;SDS_P2;PMS_P1;PMS_P2;Temp;Humidity;BMP_temperature;BMP_pressure;BME280_temperature;BME280_humidity;BME280_pressure;Samples;Min_cycle;Max_cycle;Signal;HPM_P1;HPM_P2
2020/12/23 00:01:19;;;;;;;68.10;33.80;;;10.00;99.90;;;;;;5073085;28;20108;-79
2020/12/23 00:03:45;;;;;;;58.65;30.67;;;9.90;99.90;;;;;;5072992;28;20017;-79
2020/12/23 00:06:10;;;;;;;59.60;31.75;;;9.90;99.90;;;;;;5055122;28;20033;-79
2020/12/23 00:08:36;;;;;;;64.57;33.22;;;9.90;99.90;;;;;;5071974;28;20017;-79
2020/12/23 00:11:02;;;;;;;64.53;34.17;;;9.90;99.90;;;;;;5054836;28;20027;-79
2020/12/23 00:13:28;;;;;;;68.28;33.67;;;9.80;99.90;;;;;;5054789;28;20037;-79
2020/12/23 00:15:53;;;;;;;63.15;30.73;;;9.80;99.90;;;;;;5054965;28;20415;-79
2020/12/23 00:18:19;;;;;;;63.35;32.88;;;9.80;99.90;;;;;;5054826;28;20387;-79
2020/12/23 00:20:45;;;;;;;63.28;32.75;;;9.90;99.90;;;;;;5072832;28;20032;-79
2020/12/23 00:23:10;;;;;;;63.78;32.53;;;9.90;99.90;;;;;;5054693;28;20025;-79
2020/12/23 00:25:36;;;;;;;66.18;32.75;;;9.90;99.90;;;;;;5054460;28;20498;-79
2020/12/23 00:28:01;;;;;;;65.10;32.88;;;9.90;99.90;;;;;;5054888;28;20036;-79
2020/12/23 00:30:27;;;;;;;70.22;35.22;;;9.90;99.90;;;;;;5072825;28;20036;-79
2020/12/23 00:32:52;;;;;;;60.75;33.03;;;9.90;99.90;;;;;;5054931;28;20481;-79
2020/12/23 00:35:18;;;;;;;60.38;31.80;;;9.90;99.90;;;;;;5060751;28;20438;-79
2020/12/23 00:37:43;;;;;;;60.00;32.63;;;9.90;99.90;;;;;;5074760;28;20024;-79
2020/12/23 00:40:09;;;;;;;64.93;34.08;;;9.90;99.90;;;;;;5092617;28;20054;-79
2020/12/23 00:42:35;;;;;;;63.45;34.38;;;9.90;99.90;;;;;;5074626;28;20156;-79
2020/12/23 00:45:00;;;;;;;63.97;32.90;;;9.90;99.90;;;;;;5092841;28;20016;-79
2020/12/23 00:47:26;;;;;;;60.53;33.75;;;9.90;99.90;;;;;;5092716;28;20158;-79
2020/12/23 00:49:52;;;;;;;59.88;32.08;;;9.90;99.90;;;;;;5074398;28;20134;-79
2020/12/23 00:52:18;;;;;;;70.22;33.42;;;9.90;99.90;;;;;;5074550;28;20035;-79
2020/12/23 00:54:44;;;;;;;63.97;32.88;;;9.90;99.90;;;;;;5092512;28;20034;-79
2020/12/23 00:57:09;;;;;;;64.75;32.65;;;9.90;99.90;;;;;;5074574;28;20016;-79
2020/12/23 00:59:35;;;;;;;67.13;35.25;;;10.00;99.90;;;;;;5074619;28;20052;-79
2020/12/23 01:02:02;;;;;;;63.58;35.03;;;10.00;99.90;;;;;;5074679;28;20046;-80
2020/12/23 01:04:28;;;;;;;65.07;35.03;;;10.00;99.90;;;;;;5074400;28;20031;-79
2020/12/23 01:06:54;;;;;;;67.97;36.55;;;10.00;99.90;;;;;;5074441;28;20668;-80
2020/12/23 01:09:20;;;;;;;69.70;34.63;;;10.00;99.90;;;;;;5074440;28;20036;-79
2020/12/23 01:11:46;;;;;;;67.60;37.85;;;10.10;99.90;;;;;;5074256;28;20020;-79
2020/12/23 01:14:12;;;;;;;61.78;33.42;;;10.10;99.90;;;;;;5074477;28;20442;-79
2020/12/23 01:16:37;;;;;;;73.25;35.70;;;10.10;99.90;;;;;;5074453;28;20479;-79
2020/12/23 01:19:03;;;;;;;75.43;37.67;;;10.10;99.90;;;;;;5074456;28;20028;-79
2020/12/23 01:21:29;;;;;;;59.40;32.92;;;10.10;99.90;;;;;;5077965;28;20057;-79
2020/12/23 01:23:54;;;;;;;70.28;35.95;;;10.10;99.90;;;;;;5096739;28;20032;-79
2020/12/23 01:26:20;;;;;;;71.90;37.83;;;10.10;99.90;;;;;;5077937;28;20020;-79
2020/12/23 01:28:46;;;;;;;73.47;38.00;;;10.10;99.90;;;;;;5077997;28;20387;-79
2020/12/23 01:31:11;;;;;;;73.80;36.33;;;10.10;99.90;;;;;;5096151;28;20024;-79
2020/12/23 01:33:37;;;;;;;77.55;38.53;;;10.10;99.90;;;;;;5077889;28;20028;-80
2020/12/23 01:36:03;;;;;;;82.38;38.67;;;10.10;99.90;;;;;;5083547;28;20040;-79
2020/12/23 01:38:28;;;;;;;75.47;38.03;;;10.20;99.90;;;;;;5075611;28;20036;-79
2020/12/23 01:41:03;;;;;;;82.05;37.92;;;10.20;99.90;;;;;;5075590;28;20030;-79
2020/12/23 01:43:30;;;;;;;75.53;37.10;;;10.20;99.90;;;;;;5057766;28;20024;-79
2020/12/23 01:45:55;;;;;;;74.93;35.08;;;10.20;99.90;;;;;;5075510;28;20025;-79
2020/12/23 01:48:24;;;;;;;73.35;37.63;;;10.20;99.90;;;;;;5057900;28;20118;-79
2020/12/23 01:50:50;;;;;;;79.00;37.78;;;10.20;99.90;;;;;;5075193;28;20443;-79
2020/12/23 01:53:18;;;;;;;80.57;37.83;;;10.30;99.90;;;;;;5057513;28;20123;-79
2020/12/23 01:55:45;;;;;;;72.05;37.83;;;10.30;99.90;;;;;;5075416;28;20025;-79
2020/12/23 01:58:12;;;;;;;75.22;39.00;;;10.30;99.90;;;;;;5075246;28;20017;-80
2020/12/23 02:00:38;;;;;;;79.38;37.38;;;10.30;99.90;;;;;;5057257;28;20036;-79
2020/12/23 02:03:06;;;;;;;79.03;38.75;;;10.30;99.90;;;;;;5075351;28;20152;-79
2020/12/23 02:05:32;;;;;;;70.63;37.00;;;10.30;99.90;;;;;;5057210;28;20027;-79
2020/12/23 02:07:58;;;;;;;79.57;39.28;;;10.30;99.90;;;;;;5075187;28;20029;-79
2020/12/23 02:10:23;;;;;;;80.13;38.20;;;10.30;99.90;;;;;;5075156;28;20028;-79
2020/12/23 02:12:50;;;;;;;75.75;36.78;;;10.30;99.90;;;;;;5074895;28;20081;-79
2020/12/23 02:15:16;;;;;;;91.13;39.65;;;10.30;99.90;;;;;;5057051;28;20058;-79
2020/12/23 02:17:42;;;;;;;90.00;38.55;;;10.30;99.90;;;;;;5056952;28;20031;-79
2020/12/23 02:20:11;;;;;;;99.00;37.50;;;10.30;99.90;;;;;;5074880;28;20021;-79
2020/12/23 02:22:39;;;;;;;81.22;36.22;;;10.40;99.90;;;;;;5074940;28;20430;-79
2020/12/23 02:25:06;;;;;;;82.47;39.22;;;10.40;99.90;;;;;;5074902;28;20020;-79
2020/12/23 02:27:32;;;;;;;101.28;40.17;;;10.30;99.90;;;;;;5056691;28;20032;-79
2020/12/23 02:29:58;;;;;;;82.50;38.33;;;10.30;99.90;;;;;;5056824;28;20020;-79
2020/12/23 02:32:25;;;;;;;77.88;37.47;;;10.30;99.90;;;;;;5055654;28;20024;-79
2020/12/23 02:34:51;;;;;;;72.15;34.45;;;10.40;99.90;;;;;;5058795;28;20473;-79
2020/12/23 02:37:18;;;;;;;69.32;32.05;;;10.40;99.90;;;;;;5094928;28;20476;-79
2020/12/23 02:39:47;;;;;;;77.90;35.92;;;10.40;99.90;;;;;;5076682;28;20102;-79
2020/12/23 02:42:13;;;;;;;79.75;36.80;;;10.40;99.90;;;;;;5076588;28;20472;-79
2020/12/23 02:44:38;;;;;;;80.03;36.72;;;10.40;99.90;;;;;;5076538;28;20510;-79
2020/12/23 02:47:11;;;;;;;65.47;33.85;;;10.50;99.90;;;;;;5094423;28;20032;-79
2020/12/23 02:49:38;;;;;;;78.07;36.65;;;10.50;99.90;;;;;;5076318;28;20059;-80
2020/12/23 02:52:04;;;;;;;73.13;35.58;;;10.50;99.90;;;;;;5076313;28;20119;-79
2020/12/23 02:54:30;;;;;;;65.72;35.78;;;10.50;99.90;;;;;;5076413;28;20020;-79
2020/12/23 02:56:55;;;;;;;71.35;35.17;;;10.50;99.90;;;;;;5076303;28;20024;-79
2020/12/23 02:59:21;;;;;;;66.57;34.00;;;10.40;99.90;;;;;;5094350;28;20047;-79
2020/12/23 03:01:47;;;;;;;74.43;35.92;;;10.50;99.90;;;;;;5076014;28;20063;-79
2020/12/23 03:04:12;;;;;;;60.97;33.30;;;10.50;99.90;;;;;;5094447;28;20055;-79
2020/12/23 03:06:38;;;;;;;64.43;33.67;;;10.50;99.90;;;;;;5094264;28;20101;-80
2020/12/23 03:09:06;;;;;;;67.70;33.30;;;10.50;99.90;;;;;;5076076;28;20507;-80
2020/12/23 03:11:32;;;;;;;62.88;33.10;;;10.50;99.90;;;;;;5075821;28;20055;-79
2020/12/23 03:13:58;;;;;;;60.33;34.45;;;10.60;99.90;;;;;;5094054;28;20375;-79
2020/12/23 03:16:24;;;;;;;69.30;34.60;;;10.60;99.90;;;;;;5094023;28;20107;-80
2020/12/23 03:18:49;;;;;;;62.90;33.67;;;10.60;99.90;;;;;;5094016;28;20056;-79
2020/12/23 03:21:15;;;;;;;61.90;31.70;;;10.60;99.90;;;;;;5075874;28;20378;-79
2020/12/23 03:23:40;;;;;;;65.18;33.22;;;10.60;99.90;;;;;;5075777;28;20069;-79
2020/12/23 03:26:06;;;;;;;66.15;33.83;;;10.60;99.90;;;;;;5093971;28;20020;-79
2020/12/23 03:28:33;;;;;;;61.80;35.35;;;10.70;99.90;;;;;;5093796;28;20020;-80
2020/12/23 03:30:59;;;;;;;66.13;33.97;;;10.70;99.90;;;;;;5093773;28;20024;-79
2020/12/23 03:33:25;;;;;;;66.93;36.85;;;10.70;99.90;;;;;;5093780;28;20151;-79
2020/12/23 03:35:51;;;;;;;65.13;33.72;;;10.70;99.90;;;;;;5082959;28;20586;-79
2020/12/23 03:38:17;;;;;;;61.53;34.60;;;10.70;99.90;;;;;;5073403;28;20036;-80
2020/12/23 03:40:42;;;;;;;63.58;34.47;;;10.70;99.90;;;;;;5055384;28;20021;-79
2020/12/23 03:43:08;;;;;;;69.72;36.03;;;10.70;99.90;;;;;;5073205;28;20029;-80
2020/12/23 03:45:33;;;;;;;61.45;33.92;;;10.70;99.90;;;;;;5055211;28;20061;-79
2020/12/23 03:47:59;;;;;;;72.95;36.75;;;10.70;99.90;;;;;;5055291;28;20531;-79
2020/12/23 03:50:25;;;;;;;63.40;32.80;;;10.70;99.90;;;;;;5055259;28;20636;-80
2020/12/23 03:52:50;;;;;;;67.30;35.08;;;10.70;99.90;;;;;;5055222;28;20032;-79
2020/12/23 03:55:16;;;;;;;70.63;36.85;;;10.70;99.90;;;;;;5055407;28;20020;-80
2020/12/23 03:57:41;;;;;;;67.82;36.83;;;10.70;99.90;;;;;;5055182;28;20020;-80
2020/12/23 04:00:09;;;;;;;70.45;37.33;;;10.70;99.90;;;;;;5055030;28;20484;-80
2020/12/23 04:02:35;;;;;;;79.28;38.72;;;10.70;99.90;;;;;;5072947;28;20042;-80
2020/12/23 04:05:01;;;;;;;84.90;40.97;;;10.70;99.90;;;;;;5073165;28;20103;-80
2020/12/23 04:07:27;;;;;;;99.00;42.55;;;10.70;99.90;;;;;;5055092;28;20506;-80
2020/12/23 04:09:53;;;;;;;94.75;44.08;;;10.70;99.90;;;;;;5073109;28;20081;-80
2020/12/23 04:12:19;;;;;;;121.75;47.42;;;10.70;99.90;;;;;;5072805;28;20025;-80
2020/12/23 04:14:45;;;;;;;111.93;48.15;;;10.70;99.90;;;;;;5054814;28;20029;-79
2020/12/23 04:17:10;;;;;;;85.53;39.05;;;10.70;99.90;;;;;;5055014;28;20494;-80
2020/12/23 04:19:36;;;;;;;93.43;42.00;;;10.70;99.90;;;;;;5054975;28;20475;-80
2020/12/23 04:22:01;;;;;;;122.55;46.30;;;10.70;99.90;;;;;;5072852;28;20051;-80
2020/12/23 04:24:27;;;;;;;90.80;39.85;;;10.70;99.90;;;;;;5072913;28;20117;-80
2020/12/23 04:26:52;;;;;;;108.95;43.25;;;10.80;99.90;;;;;;5054776;28;20067;-80
2020/12/23 04:29:18;;;;;;;134.43;47.05;;;10.70;99.90;;;;;;5054837;28;20472;-80
2020/12/23 04:31:44;;;;;;;108.80;44.67;;;10.70;99.90;;;;;;5054527;28;20032;-80
2020/12/23 04:34:09;;;;;;;127.78;47.42;;;10.80;99.90;;;;;;5072848;28;20031;-80
2020/12/23 04:36:35;;;;;;;108.63;43.95;;;10.80;99.90;;;;;;5071358;28;20027;-80
2020/12/23 04:39:01;;;;;;;107.18;46.95;;;10.80;99.90;;;;;;5074826;28;20028;-80
2020/12/23 04:41:31;;;;;;;100.22;44.78;;;10.80;99.90;;;;;;5074735;28;20414;-80
2020/12/23 04:43:57;;;;;;;83.78;38.05;;;10.80;99.90;;;;;;5074795;28;20078;-80
2020/12/23 04:46:25;;;;;;;84.88;41.10;;;10.80;99.90;;;;;;5092748;28;20451;-79
2020/12/23 04:48:56;;;;;;;89.93;40.47;;;10.80;99.90;;;;;;5074371;28;20028;-80
2020/12/23 04:51:31;;;;;;;83.07;39.97;;;10.80;99.90;;;;;;5092349;28;20016;-80
2020/12/23 04:53:58;;;;;;;78.18;40.78;;;10.80;99.90;;;;;;5092847;28;20026;-80
2020/12/23 04:56:26;;;;;;;78.47;40.13;;;10.80;99.90;;;;;;5078138;28;20085;-80
2020/12/23 04:58:53;;;;;;;73.90;38.00;;;10.80;99.90;;;;;;5078630;28;20020;-80
2020/12/23 05:01:18;;;;;;;66.07;36.92;;;10.80;99.90;;;;;;5078194;28;20020;-79
2020/12/23 05:03:45;;;;;;;69.78;36.67;;;10.80;99.90;;;;;;5078356;28;20147;-79
2020/12/23 05:06:11;;;;;;;76.72;36.45;;;10.80;99.90;;;;;;5077475;28;20119;-79
2020/12/23 05:08:36;;;;;;;83.68;38.75;;;10.80;99.90;;;;;;5096349;28;20035;-79
2020/12/23 05:11:07;;;;;;;83.93;37.97;;;10.90;99.90;;;;;;5078457;28;20028;-79
2020/12/23 05:13:32;;;;;;;70.32;34.15;;;10.90;99.90;;;;;;5096374;28;20024;-79
2020/12/23 05:15:58;;;;;;;63.78;33.03;;;10.90;99.90;;;;;;5078333;28;20133;-79
2020/12/23 05:18:40;;;;;;;81.07;34.00;;;10.90;99.90;;;;;;5096342;28;20483;-79
2020/12/23 05:21:14;;;;;;;56.28;28.95;;;10.90;99.90;;;;;;5078154;28;20153;-79
2020/12/23 05:23:44;;;;;;;66.88;31.75;;;11.00;99.90;;;;;;5096186;28;20031;-79
2020/12/23 05:26:11;;;;;;;60.95;31.40;;;10.90;99.90;;;;;;5078205;28;20218;-79
2020/12/23 05:28:37;;;;;;;59.35;30.55;;;10.90;99.90;;;;;;5078000;28;20024;-79
2020/12/23 05:31:08;;;;;;;55.75;29.52;;;10.90;99.90;;;;;;5077500;28;20024;-79
2020/12/23 05:33:35;;;;;;;55.83;29.38;;;10.90;99.90;;;;;;5077661;28;20035;-79
2020/12/23 05:36:19;;;;;;;41.92;25.40;;;10.90;99.90;;;;;;5066192;28;20039;-79
2020/12/23 05:38:45;;;;;;;36.97;22.42;;;11.00;99.90;;;;;;5075724;28;20051;-79
2020/12/23 05:41:14;;;;;;;35.85;21.77;;;10.90;99.90;;;;;;5075860;28;20048;-79
2020/12/23 05:43:41;;;;;;;35.72;20.60;;;11.00;99.90;;;;;;5057570;28;20025;-79
2020/12/23 05:46:09;;;;;;;33.25;20.48;;;11.00;99.90;;;;;;5075596;28;20107;-79
2020/12/23 05:48:37;;;;;;;30.45;19.40;;;11.00;99.90;;;;;;5057563;28;20029;-79
2020/12/23 05:51:04;;;;;;;29.20;19.20;;;11.00;99.90;;;;;;5057693;28;20059;-80
2020/12/23 05:53:33;;;;;;;29.00;18.15;;;11.00;99.90;;;;;;5057334;28;20056;-80
2020/12/23 05:55:59;;;;;;;27.60;18.55;;;11.10;99.90;;;;;;5057669;28;20035;-80
2020/12/23 05:58:28;;;;;;;32.75;20.35;;;11.10;99.90;;;;;;5057536;28;20024;-80
2020/12/23 06:00:55;;;;;;;28.67;19.20;;;11.10;99.90;;;;;;5057461;28;20024;-80
2020/12/23 06:03:50;;;;;;;33.40;19.55;;;11.10;99.90;;;;;;5075152;28;20133;-80
2020/12/23 06:06:24;;;;;;;29.65;19.52;;;11.20;99.90;;;;;;5057401;28;20495;-80
2020/12/23 06:08:53;;;;;;;31.75;19.23;;;11.20;99.90;;;;;;5075248;28;20046;-80
2020/12/23 06:11:28;;;;;;;32.05;20.27;;;11.20;99.90;;;;;;5057019;28;20494;-80
2020/12/23 06:13:56;;;;;;;30.45;17.92;;;11.20;99.90;;;;;;5057129;28;20029;-80
2020/12/23 06:16:35;;;;;;;30.60;18.02;;;11.20;99.90;;;;;;5057213;28;20111;-80
2020/12/23 06:19:15;;;;;;;30.97;19.93;;;11.30;99.90;;;;;;5056650;28;20399;-80
2020/12/23 06:21:41;;;;;;;29.90;18.52;;;11.20;99.90;;;;;;5074499;28;20100;-80
2020/12/23 06:24:08;;;;;;;28.80;19.05;;;11.30;99.90;;;;;;5074635;28;20103;-80
2020/12/23 06:26:38;;;;;;;28.15;18.45;;;11.30;99.90;;;;;;5076466;28;20180;-81
2020/12/23 06:29:06;;;;;;;25.77;16.85;;;11.30;99.90;;;;;;5076127;28;20016;-80
2020/12/23 06:31:45;;;;;;;25.00;17.45;;;11.30;99.90;;;;;;5072613;28;20028;-80
2020/12/23 06:34:21;;;;;;;28.65;17.23;;;11.40;99.90;;;;;;5074020;28;20502;-80
2020/12/23 06:36:48;;;;;;;25.40;15.57;;;11.40;99.90;;;;;;5056704;28;20048;-81
2020/12/23 06:39:24;;;;;;;24.15;15.35;;;11.40;99.90;;;;;;5059489;28;20016;-81
2020/12/23 06:41:52;;;;;;;25.33;15.70;;;11.40;99.90;;;;;;5060446;28;20431;-81
2020/12/23 06:44:18;;;;;;;27.10;14.98;;;11.40;99.90;;;;;;5074514;28;20024;-80
2020/12/23 06:46:58;;;;;;;23.40;15.68;;;11.40;99.90;;;;;;5074309;28;20032;-80
2020/12/23 06:49:44;;;;;;;24.20;14.85;;;11.50;99.90;;;;;;5074181;28;20059;-80
2020/12/23 06:52:22;;;;;;;21.77;14.43;;;11.50;99.90;;;;;;5074441;28;20032;-80
2020/12/23 06:55:09;;;;;;;26.92;15.13;;;11.50;99.90;;;;;;5074043;28;20048;-80
2020/12/23 06:57:37;;;;;;;24.30;14.45;;;11.50;99.90;;;;;;5056419;28;20027;-80
2020/12/23 07:00:05;;;;;;;21.48;15.10;;;11.50;99.90;;;;;;5074174;28;20027;-80
2020/12/23 07:02:55;;;;;;;28.00;16.92;;;11.60;99.90;;;;;;5056206;28;20398;-80
2020/12/23 07:05:21;;;;;;;19.73;14.07;;;11.60;99.90;;;;;;5074126;28;20476;-80
2020/12/23 07:07:49;;;;;;;19.23;13.25;;;11.60;99.90;;;;;;5056217;28;20036;-79
2020/12/23 07:10:16;;;;;;;21.20;12.73;;;11.60;99.90;;;;;;5056080;28;20031;-80
2020/12/23 07:12:49;;;;;;;19.88;12.43;;;11.60;99.90;;;;;;5073888;28;20033;-79
2020/12/23 07:15:20;;;;;;;18.85;12.95;;;11.60;99.90;;;;;;5073864;28;20020;-79
2020/12/23 07:17:46;;;;;;;17.92;12.73;;;11.60;99.90;;;;;;5078716;28;20028;-79
2020/12/23 07:20:15;;;;;;;17.35;12.52;;;11.60;99.90;;;;;;5067694;28;20020;-80
2020/12/23 07:22:47;;;;;;;19.67;13.07;;;11.60;99.90;;;;;;5093948;28;20035;-80
2020/12/23 07:25:17;;;;;;;20.33;12.55;;;11.60;99.90;;;;;;5093989;28;20078;-80
2020/12/23 07:27:45;;;;;;;22.23;14.57;;;11.60;99.90;;;;;;5075877;28;20031;-80
2020/12/23 07:30:11;;;;;;;19.30;13.38;;;11.60;99.90;;;;;;5075755;28;20032;-80
2020/12/23 07:32:37;;;;;;;17.92;12.73;;;11.60;99.90;;;;;;5089952;28;20115;-79
2020/12/23 07:35:04;;;;;;;16.15;12.23;;;11.60;99.90;;;;;;5078168;28;20027;-80
2020/12/23 07:37:40;;;;;;;19.40;12.48;;;11.60;99.90;;;;;;5065409;28;20496;-80
2020/12/23 07:40:16;;;;;;;17.15;12.57;;;11.60;99.90;;;;;;5067515;28;20145;-80
2020/12/23 07:42:51;;;;;;;19.60;12.38;;;11.60;99.90;;;;;;5075551;28;20027;-80
2020/12/23 07:45:18;;;;;;;16.50;11.52;;;11.60;99.90;;;;;;5075343;28;20046;-79
2020/12/23 07:48:02;;;;;;;17.63;11.65;;;11.60;99.90;;;;;;5093468;28;20024;-79
2020/12/23 07:50:30;;;;;;;20.13;12.23;;;11.70;99.90;;;;;;5071873;28;20051;-79
2020/12/23 07:52:56;;;;;;;17.80;11.55;;;11.70;99.90;;;;;;5060248;28;20028;-79
2020/12/23 07:55:23;;;;;;;18.52;11.10;;;11.70;99.90;;;;;;5081831;28;20009;-79
2020/12/23 07:57:52;;;;;;;17.77;10.40;;;11.70;99.90;;;;;;5069988;28;20054;-79
2020/12/23 08:00:19;;;;;;;15.20;9.17;;;11.70;99.90;;;;;;5082550;28;20065;-79
2020/12/23 08:02:45;;;;;;;15.88;9.68;;;11.70;99.90;;;;;;5065893;28;20028;-79
2020/12/23 08:05:12;;;;;;;13.70;9.57;;;11.70;99.90;;;;;;5059222;28;20082;-79
2020/12/23 08:07:43;;;;;;;11.80;8.18;;;11.70;99.90;;;;;;5064485;28;20016;-79
2020/12/23 08:10:12;;;;;;;10.80;8.45;;;11.70;99.90;;;;;;5083365;28;20038;-79
2020/12/23 08:12:49;;;;;;;13.52;8.40;;;11.60;99.90;;;;;;5063632;28;20017;-79
2020/12/23 08:15:15;;;;;;;10.05;6.90;;;11.60;99.90;;;;;;5081596;28;20395;-79
2020/12/23 08:17:41;;;;;;;12.10;7.85;;;11.60;99.90;;;;;;5085717;28;20020;-79
2020/12/23 08:20:09;;;;;;;9.70;7.38;;;11.60;99.90;;;;;;5080477;28;20016;-79
2020/12/23 08:22:36;;;;;;;14.95;8.93;;;11.60;99.90;;;;;;5063019;28;20028;-79
2020/12/23 08:25:11;;;;;;;11.55;7.80;;;11.60;99.90;;;;;;5063447;28;20027;-79
2020/12/23 08:27:39;;;;;;;10.75;7.80;;;11.60;99.90;;;;;;5067646;28;20020;-79
2020/12/23 08:30:08;;;;;;;10.05;7.55;;;11.60;99.90;;;;;;5072759;28;20118;-79
2020/12/23 08:32:36;;;;;;;13.55;8.30;;;11.60;99.90;;;;;;5069855;28;20038;-79
2020/12/23 08:35:04;;;;;;;10.90;7.18;;;11.60;99.90;;;;;;5081530;28;20135;-79
2020/12/23 08:37:29;;;;;;;10.40;7.13;;;11.60;99.90;;;;;;5072421;28;20021;-80
2020/12/23 08:39:57;;;;;;;11.32;8.00;;;11.60;99.90;;;;;;5054314;28;20051;-80
2020/12/23 08:42:23;;;;;;;10.07;6.82;;;11.60;99.90;;;;;;5068174;28;20030;-80
2020/12/23 08:44:50;;;;;;;12.80;7.65;;;11.60;99.90;;;;;;5061704;28;20025;-80
2020/12/23 08:47:21;;;;;;;9.68;6.30;;;11.60;99.90;;;;;;5065139;28;20020;-80
2020/12/23 08:49:47;;;;;;;8.75;6.40;;;11.60;99.90;;;;;;5064194;28;20079;-80
2020/12/23 08:52:18;;;;;;;9.55;6.13;;;11.60;99.90;;;;;;5081119;28;20021;-79
2020/12/23 08:54:44;;;;;;;10.27;6.80;;;11.60;99.90;;;;;;5062509;28;20117;-80
2020/12/23 08:57:11;;;;;;;9.40;5.47;;;11.60;99.90;;;;;;5077583;28;20103;-80
2020/12/23 08:59:40;;;;;;;7.80;5.80;;;11.60;99.90;;;;;;5063674;28;20024;-80
2020/12/23 09:02:10;;;;;;;9.07;6.43;;;11.60;99.90;;;;;;5082593;28;20020;-80
2020/12/23 09:04:36;;;;;;;7.85;5.80;;;11.60;99.90;;;;;;5068105;28;20060;-80
2020/12/23 09:07:01;;;;;;;7.70;5.60;;;11.60;99.90;;;;;;5061511;28;20063;-80
2020/12/23 09:09:27;;;;;;;9.18;6.38;;;11.60;99.90;;;;;;5080688;28;20126;-79
2020/12/23 09:11:54;;;;;;;9.85;6.35;;;11.60;99.90;;;;;;5083986;28;20077;-80
2020/12/23 09:14:26;;;;;;;12.52;6.30;;;11.60;99.90;;;;;;5082808;28;20091;-80
2020/12/23 09:17:01;;;;;;;10.38;6.60;;;11.70;99.90;;;;;;5065705;28;20531;-80
2020/12/23 09:19:44;;;;;;;12.98;6.72;;;11.60;99.90;;;;;;5082541;28;20012;-81
2020/12/23 09:22:29;;;;;;;9.10;5.80;;;11.60;99.90;;;;;;5080274;28;20021;-81
2020/12/23 09:25:21;;;;;;;11.70;6.57;;;11.60;99.90;;;;;;5083304;28;20028;-81
2020/12/23 09:27:52;;;;;;;11.15;6.68;;;11.60;99.90;;;;;;5070137;28;20038;-81
2020/12/23 09:30:47;;;;;;;9.70;6.30;;;11.60;99.90;;;;;;5065084;28;20027;-81
2020/12/23 09:33:14;;;;;;;9.32;6.72;;;11.60;99.90;;;;;;5064514;28;20559;-81
2020/12/23 09:35:44;;;;;;;8.95;6.22;;;11.60;99.90;;;;;;5078540;28;20031;-81
2020/12/23 09:38:34;;;;;;;12.07;7.53;;;11.60;99.90;;;;;;5076909;28;20081;-81
2020/12/23 09:41:07;;;;;;;10.40;6.82;;;11.70;99.90;;;;;;5065897;28;20043;-81
2020/12/23 09:43:35;;;;;;;11.88;7.22;;;11.60;99.90;;;;;;5082460;28;20032;-80
2020/12/23 09:46:06;;;;;;;12.52;8.02;;;11.60;99.90;;;;;;5064852;28;20020;-80
2020/12/23 09:48:32;;;;;;;12.57;8.18;;;11.60;99.90;;;;;;5069105;28;20506;-80
2020/12/23 09:50:58;;;;;;;11.55;7.47;;;11.60;99.90;;;;;;5084436;28;20044;-80
2020/12/23 09:53:25;;;;;;;12.82;7.78;;;11.60;99.90;;;;;;5078875;28;20034;-80
2020/12/23 09:55:52;;;;;;;10.25;7.32;;;11.60;99.90;;;;;;5071337;28;20034;-79
2020/12/23 09:58:17;;;;;;;10.68;7.07;;;11.60;99.90;;;;;;5068448;28;20074;-79
2020/12/23 10:00:45;;;;;;;9.93;6.80;;;11.70;99.90;;;;;;5077228;28;20472;-78
2020/12/23 10:03:12;;;;;;;10.15;6.75;;;11.60;99.90;;;;;;5077164;28;20028;-79
2020/12/23 10:05:38;;;;;;;12.68;7.53;;;11.60;99.90;;;;;;5083636;28;20020;-78
2020/12/23 10:08:05;;;;;;;11.02;6.95;;;11.60;99.90;;;;;;5089567;28;20039;-78
2020/12/23 10:10:30;;;;;;;10.77;6.97;;;11.60;99.90;;;;;;5095100;28;20095;-78
2020/12/23 10:12:56;;;;;;;10.07;6.60;;;11.60;99.90;;;;;;5077056;28;20123;-78
2020/12/23 10:15:22;;;;;;;8.82;6.88;;;11.60;99.90;;;;;;5077283;28;20012;-78
2020/12/23 10:17:47;;;;;;;8.23;6.00;;;11.60;99.90;;;;;;5095307;28;20464;-78
2020/12/23 10:20:13;;;;;;;9.77;6.40;;;11.70;99.90;;;;;;5095110;28;20033;-79
2020/12/23 10:22:39;;;;;;;11.38;6.50;;;11.70;99.90;;;;;;5077151;28;20262;-79
2020/12/23 10:25:09;;;;;;;7.47;5.53;;;11.70;99.90;;;;;;5076674;28;20024;-78
2020/12/23 10:27:35;;;;;;;9.55;6.00;;;11.70;99.90;;;;;;5095303;28;20024;-78
2020/12/23 10:30:03;;;;;;;9.10;6.55;;;11.70;99.90;;;;;;5076814;28;20039;-79
2020/12/23 10:32:29;;;;;;;9.65;6.68;;;11.70;99.90;;;;;;5076580;28;20028;-78
2020/12/23 10:34:55;;;;;;;8.80;6.63;;;11.70;99.90;;;;;;5073893;28;20162;-78
2020/12/23 10:37:20;;;;;;;8.23;6.35;;;11.70;99.90;;;;;;5056550;28;20054;-78
2020/12/23 10:39:47;;;;;;;7.72;6.50;;;11.70;99.90;;;;;;5062604;28;20076;-79
2020/12/23 10:42:13;;;;;;;8.30;5.90;;;11.70;99.90;;;;;;5076236;28;20027;-79
2020/12/23 10:44:39;;;;;;;8.45;6.85;;;11.70;99.90;;;;;;5076321;28;20390;-78
2020/12/23 10:47:04;;;;;;;8.80;6.75;;;11.70;99.90;;;;;;5076533;28;20020;-78
2020/12/23 10:49:33;;;;;;;9.55;6.40;;;11.70;99.90;;;;;;5094379;28;20115;-79
2020/12/23 10:51:59;;;;;;;8.40;6.30;;;11.60;99.90;;;;;;5075768;28;20138;-79
2020/12/23 10:54:25;;;;;;;10.63;7.43;;;11.60;99.90;;;;;;5076001;28;20111;-79
2020/12/23 10:56:51;;;;;;;8.38;6.65;;;11.60;99.90;;;;;;5076195;28;20039;-79
2020/12/23 10:59:17;;;;;;;7.40;6.35;;;11.60;99.90;;;;;;5076411;28;20024;-79
2020/12/23 11:01:43;;;;;;;7.97;5.85;;;11.60;99.90;;;;;;5094392;28;20099;-79
2020/12/23 11:04:08;;;;;;;10.73;7.20;;;11.60;99.90;;;;;;5074735;28;20064;-79
2020/12/23 11:06:34;;;;;;;9.23;7.07;;;11.60;99.90;;;;;;5075761;28;20024;-79
2020/12/23 11:09:00;;;;;;;9.18;6.70;;;11.60;99.90;;;;;;5094116;28;20031;-79
2020/12/23 11:11:27;;;;;;;11.98;7.55;;;11.60;99.90;;;;;;5094103;28;20043;-79
2020/12/23 11:13:52;;;;;;;10.52;8.32;;;11.50;99.90;;;;;;5076009;28;20110;-79
2020/12/23 11:16:19;;;;;;;11.52;7.97;;;11.50;99.90;;;;;;5072895;28;20055;-79
2020/12/23 11:18:45;;;;;;;13.63;9.68;;;11.50;99.90;;;;;;5064476;28;20391;-78
2020/12/23 11:21:12;;;;;;;11.75;9.57;;;11.50;99.90;;;;;;5067903;28;20036;-78
2020/12/23 11:23:38;;;;;;;11.88;9.88;;;11.50;99.90;;;;;;5087459;28;20107;-78
2020/12/23 11:26:04;;;;;;;13.40;10.27;;;11.50;99.90;;;;;;5083850;28;20099;-79
2020/12/23 11:28:32;;;;;;;13.07;10.20;;;11.50;99.90;;;;;;5062711;28;20066;-79
2020/12/23 11:30:59;;;;;;;14.43;10.27;;;11.50;99.90;;;;;;5065598;28;20031;-79
2020/12/23 11:33:28;;;;;;;12.45;8.98;;;11.50;99.90;;;;;;5083833;28;20020;-79
2020/12/23 11:35:55;;;;;;;11.07;9.20;;;11.50;99.90;;;;;;5065268;28;20475;-79
2020/12/23 11:38:20;;;;;;;12.90;9.95;;;11.50;99.90;;;;;;5063802;28;20020;-79
2020/12/23 11:40:46;;;;;;;11.60;9.15;;;11.50;99.90;;;;;;5085908;28;20103;-78
2020/12/23 11:43:11;;;;;;;11.52;8.88;;;11.50;99.90;;;;;;5066308;28;20032;-78
2020/12/23 11:45:37;;;;;;;10.60;8.82;;;11.50;99.90;;;;;;5071721;28;20365;-79
2020/12/23 11:48:02;;;;;;;11.70;9.18;;;11.50;99.90;;;;;;5067701;28;20024;-80
2020/12/23 11:50:28;;;;;;;11.27;8.85;;;11.50;99.90;;;;;;5053295;28;20097;-79
2020/12/23 11:52:53;;;;;;;11.60;8.30;;;11.50;99.90;;;;;;5071284;28;20043;-79
2020/12/23 11:55:19;;;;;;;12.18;8.82;;;11.50;99.90;;;;;;5078931;28;20486;-79
2020/12/23 11:57:45;;;;;;;10.75;8.50;;;11.60;99.90;;;;;;5063756;28;20027;-79
2020/12/23 12:00:11;;;;;;;11.00;8.52;;;11.60;99.90;;;;;;5075071;28;20498;-79
2020/12/23 12:02:37;;;;;;;10.73;8.35;;;11.60;99.90;;;;;;5055654;28;20024;-78
2020/12/23 12:05:03;;;;;;;9.57;7.90;;;11.60;99.90;;;;;;5072967;28;20028;-79
2020/12/23 12:07:29;;;;;;;10.13;8.05;;;11.60;99.90;;;;;;5053365;28;20021;-79
2020/12/23 12:09:55;;;;;;;9.73;7.45;;;11.60;99.90;;;;;;5072035;28;20025;-79
2020/12/23 12:12:20;;;;;;;9.82;7.72;;;11.70;99.90;;;;;;5073736;28;20020;-80
2020/12/23 12:14:46;;;;;;;9.38;7.55;;;11.60;99.90;;;;;;5058130;28;20039;-80
2020/12/23 12:17:11;;;;;;;9.50;7.30;;;11.60;99.90;;;;;;5053754;28;20013;-80
2020/12/23 12:19:37;;;;;;;8.98;7.28;;;11.60;99.90;;;;;;5060471;28;20392;-79
2020/12/23 12:22:02;;;;;;;8.13;6.40;;;11.60;99.90;;;;;;5054692;28;20017;-79
2020/12/23 12:24:28;;;;;;;7.05;6.35;;;11.60;99.90;;;;;;5053841;28;20484;-79
2020/12/23 12:26:53;;;;;;;7.82;5.85;;;11.60;99.90;;;;;;5077693;28;20491;-78
2020/12/23 12:29:19;;;;;;;6.28;5.68;;;11.60;99.90;;;;;;5061149;28;20020;-78
2020/12/23 12:31:47;;;;;;;9.15;5.75;;;11.60;99.90;;;;;;5084929;28;20044;-80
2020/12/23 12:34:12;;;;;;;6.05;5.10;;;11.60;99.90;;;;;;5068942;28;20027;-79
2020/12/23 12:36:38;;;;;;;6.93;4.57;;;11.60;99.90;;;;;;5055188;28;20021;-79